sensor_id;sensor_type;location;lat;lon;timestamp;pressure;altitude;pressure_sealevel;temperature;humidity
20027;BME280;10174;42.688;23.344;2023-10-08T00:01:02;95683.00;;;9.42;67.25
20027;BME280;10174;42.688;23.344;2023-10-08T00:03:28;95792.81;;;10.05;67.58
20027;BME280;10174;42.688;23.344;2023-10-08T00:05:55;95787.13;;;10.01;67.69
20027;BME280;10174;42.688;23.344;2023-10-08T00:08:20;95790.97;;;10.05;68.03
20027;BME280;10174;42.688;23.344;2023-10-08T00:10:47;95720.31;;;9.60;67.93
20027;BME280;10174;42.688;23.344;2023-10-08T00:13:13;95764.53;;;9.97;67.86
20027;BME280;10174;42.688;23.344;2023-10-08T00:15:41;95755.97;;;10.00;67.67
20027;BME280;10174;42.688;23.344;2023-10-08T00:18:18;95745.03;;;9.85;67.96
20027;BME280;10174;42.688;23.344;2023-10-08T00:20:44;95749.94;;;9.71;68.82
20027;BME280;10174;42.688;23.344;2023-10-08T00:23:32;95744.28;;;9.67;69.49
20027;BME280;10174;42.688;23.344;2023-10-08T00:26:00;95774.50;;;10.02;69.58
20027;BME280;10174;42.688;23.344;2023-10-08T00:28:31;95754.28;;;9.94;69.91
20027;BME280;10174;42.688;23.344;2023-10-08T00:30:58;95742.94;;;9.87;69.22
20027;BME280;10174;42.688;23.344;2023-10-08T00:33:30;95744.38;;;9.94;69.24
20027;BME280;10174;42.688;23.344;2023-10-08T00:35:56;95666.91;;;9.42;69.22
20027;BME280;10174;42.688;23.344;2023-10-08T00:38:21;95756.91;;;9.89;70.10
20027;BME280;10174;42.688;23.344;2023-10-08T00:40:49;95761.59;;;9.98;69.93
20027;BME280;10174;42.688;23.344;2023-10-08T00:43:34;95764.78;;;9.95;69.76
20027;BME280;10174;42.688;23.344;2023-10-08T00:46:04;95732.25;;;9.70;69.70
20027;BME280;10174;42.688;23.344;2023-10-08T00:48:31;95745.41;;;9.71;69.57
20027;BME280;10174;42.688;23.344;2023-10-08T00:51:03;95752.31;;;9.67;70.24
20027;BME280;10174;42.688;23.344;2023-10-08T00:53:53;95709.44;;;9.33;70.32
20027;BME280;10174;42.688;23.344;2023-10-08T00:56:24;95714.88;;;9.38;70.46
20027;BME280;10174;42.688;23.344;2023-10-08T00:58:51;95734.06;;;9.47;71.11
20027;BME280;10174;42.688;23.344;2023-10-08T01:01:19;95727.16;;;9.34;71.72
20027;BME280;10174;42.688;23.344;2023-10-08T01:03:46;95742.34;;;9.45;71.81
20027;BME280;10174;42.688;23.344;2023-10-08T01:06:16;95728.53;;;9.37;72.19
20027;BME280;10174;42.688;23.344;2023-10-08T01:08:44;95727.38;;;9.50;72.32
20027;BME280;10174;42.688;23.344;2023-10-08T01:11:21;95727.06;;;9.46;72.33
20027;BME280;10174;42.688;23.344;2023-10-08T01:13:59;95736.16;;;9.62;71.62
20027;BME280;10174;42.688;23.344;2023-10-08T01:16:25;95743.72;;;9.65;71.13
20027;BME280;10174;42.688;23.344;2023-10-08T01:18:58;95719.56;;;9.48;71.27
20027;BME280;10174;42.688;23.344;2023-10-08T01:21:28;95719.75;;;9.41;71.28
20027;BME280;10174;42.688;23.344;2023-10-08T01:24:03;95715.69;;;9.39;71.30
20027;BME280;10174;42.688;23.344;2023-10-08T01:26:35;95746.31;;;9.60;71.39
20027;BME280;10174;42.688;23.344;2023-10-08T01:29:08;95699.13;;;9.25;71.01
20027;BME280;10174;42.688;23.344;2023-10-08T01:31:33;95734.22;;;9.40;71.66
20027;BME280;10174;42.688;23.344;2023-10-08T01:33:59;95706.28;;;9.19;71.56
20027;BME280;10174;42.688;23.344;2023-10-08T01:36:26;95724.94;;;9.31;71.42
20027;BME280;10174;42.688;23.344;2023-10-08T01:38:51;95722.38;;;9.36;71.13
20027;BME280;10174;42.688;23.344;2023-10-08T01:41:17;95738.59;;;9.47;71.00
20027;BME280;10174;42.688;23.344;2023-10-08T01:43:54;95731.47;;;9.35;70.57
20027;BME280;10174;42.688;23.344;2023-10-08T01:46:20;95737.31;;;9.32;70.75
20027;BME280;10174;42.688;23.344;2023-10-08T01:48:47;95734.22;;;9.23;71.06
20027;BME280;10174;42.688;23.344;2023-10-08T01:51:15;95746.91;;;9.28;71.19
20027;BME280;10174;42.688;23.344;2023-10-08T01:56:42;95757.47;;;9.35;71.02
20027;BME280;10174;42.688;23.344;2023-10-08T01:59:11;95743.81;;;9.36;70.37
20027;BME280;10174;42.688;23.344;2023-10-08T02:01:39;95746.41;;;9.31;70.29
20027;BME280;10174;42.688;23.344;2023-10-08T02:04:07;95715.69;;;9.05;70.52
20027;BME280;10174;42.688;23.344;2023-10-08T02:06:35;95745.78;;;9.24;70.38
20027;BME280;10174;42.688;23.344;2023-10-08T02:09:01;95718.38;;;9.05;70.16
20027;BME280;10174;42.688;23.344;2023-10-08T02:14:08;95690.69;;;8.99;69.83
20027;BME280;10174;42.688;23.344;2023-10-08T02:16:34;95669.81;;;8.67;70.35
20027;BME280;10174;42.688;23.344;2023-10-08T02:18:59;95652.13;;;8.66;69.70
20027;BME280;10174;42.688;23.344;2023-10-08T02:21:25;95690.28;;;9.07;68.77
20027;BME280;10174;42.688;23.344;2023-10-08T02:23:51;95732.13;;;9.42;68.26
20027;BME280;10174;42.688;23.344;2023-10-08T02:26:17;95744.31;;;9.33;68.55
20027;BME280;10174;42.688;23.344;2023-10-08T02:28:44;95721.06;;;9.22;69.10
20027;BME280;10174;42.688;23.344;2023-10-08T02:31:10;95692.78;;;8.97;70.58
20027;BME280;10174;42.688;23.344;2023-10-08T02:33:35;95734.56;;;9.27;69.82
20027;BME280;10174;42.688;23.344;2023-10-08T02:36:02;95735.38;;;9.11;70.32
20027;BME280;10174;42.688;23.344;2023-10-08T02:38:29;95718.78;;;8.97;70.48
20027;BME280;10174;42.688;23.344;2023-10-08T02:40:55;95717.81;;;8.86;71.57
20027;BME280;10174;42.688;23.344;2023-10-08T02:43:22;95719.41;;;8.87;72.33
20027;BME280;10174;42.688;23.344;2023-10-08T02:45:48;95684.56;;;8.53;72.44
20027;BME280;10174;42.688;23.344;2023-10-08T02:48:15;95710.13;;;8.61;72.98
20027;BME280;10174;42.688;23.344;2023-10-08T02:50:42;95696.91;;;8.54;73.18
20027;BME280;10174;42.688;23.344;2023-10-08T02:53:08;95685.28;;;8.36;73.88
20027;BME280;10174;42.688;23.344;2023-10-08T02:55:39;95646.41;;;8.17;73.66
20027;BME280;10174;42.688;23.344;2023-10-08T02:58:13;95722.72;;;8.60;74.07
20027;BME280;10174;42.688;23.344;2023-10-08T03:00:45;95736.84;;;8.55;74.24
20027;BME280;10174;42.688;23.344;2023-10-08T03:03:14;95711.25;;;8.36;74.69
20027;BME280;10174;42.688;23.344;2023-10-08T03:05:51;95739.63;;;8.49;74.88
20027;BME280;10174;42.688;23.344;2023-10-08T03:08:18;95730.00;;;8.36;74.95
20027;BME280;10174;42.688;23.344;2023-10-08T03:10:46;95718.38;;;8.30;75.53
20027;BME280;10174;42.688;23.344;2023-10-08T03:13:15;95723.69;;;8.42;75.90
20027;BME280;10174;42.688;23.344;2023-10-08T03:15:41;95649.53;;;7.85;75.89
20027;BME280;10174;42.688;23.344;2023-10-08T03:18:26;95712.16;;;8.13;76.61
20027;BME280;10174;42.688;23.344;2023-10-08T03:21:01;95705.31;;;8.05;76.85
20027;BME280;10174;42.688;23.344;2023-10-08T03:23:29;95740.50;;;8.26;77.12
20027;BME280;10174;42.688;23.344;2023-10-08T03:26:03;95722.47;;;8.21;77.15
20027;BME280;10174;42.688;23.344;2023-10-08T03:28:48;95732.13;;;8.34;76.76
20027;BME280;10174;42.688;23.344;2023-10-08T03:31:22;95683.00;;;7.99;76.94
20027;BME280;10174;42.688;23.344;2023-10-08T03:34:05;95709.00;;;8.16;77.28
20027;BME280;10174;42.688;23.344;2023-10-08T03:36:31;95675.22;;;7.86;77.95
20027;BME280;10174;42.688;23.344;2023-10-08T03:39:00;95717.97;;;8.22;77.52
20027;BME280;10174;42.688;23.344;2023-10-08T03:41:35;95629.34;;;7.65;77.31
20027;BME280;10174;42.688;23.344;2023-10-08T03:44:05;95714.13;;;8.17;77.88
20027;BME280;10174;42.688;23.344;2023-10-08T03:46:33;95699.94;;;8.17;77.24
20027;BME280;10174;42.688;23.344;2023-10-08T03:49:11;95656.03;;;7.89;77.98
20027;BME280;10174;42.688;23.344;2023-10-08T03:51:50;95709.47;;;8.25;78.34
20027;BME280;10174;42.688;23.344;2023-10-08T03:54:23;95716.66;;;8.24;77.65
20027;BME280;10174;42.688;23.344;2023-10-08T03:57:01;95697.16;;;8.12;77.67
20027;BME280;10174;42.688;23.344;2023-10-08T03:59:29;95704.34;;;8.23;77.77
20027;BME280;10174;42.688;23.344;2023-10-08T04:02:02;95702.22;;;8.25;77.88
20027;BME280;10174;42.688;23.344;2023-10-08T04:04:48;95659.47;;;8.01;77.88
20027;BME280;10174;42.688;23.344;2023-10-08T04:07:22;95685.50;;;8.18;78.20
20027;BME280;10174;42.688;23.344;2023-10-08T04:09:56;95658.94;;;7.88;78.06
20027;BME280;10174;42.688;23.344;2023-10-08T04:12:34;95711.56;;;8.11;78.37
20027;BME280;10174;42.688;23.344;2023-10-08T04:15:03;95618.91;;;7.52;78.74
20027;BME280;10174;42.688;23.344;2023-10-08T04:17:36;95702.16;;;8.08;79.82
20027;BME280;10174;42.688;23.344;2023-10-08T04:20:09;95711.22;;;8.19;79.49
20027;BME280;10174;42.688;23.344;2023-10-08T04:22:55;95673.47;;;7.92;79.43
20027;BME280;10174;42.688;23.344;2023-10-08T04:25:21;95668.84;;;7.87;79.63
20027;BME280;10174;42.688;23.344;2023-10-08T04:27:46;95668.63;;;7.77;79.88
20027;BME280;10174;42.688;23.344;2023-10-08T04:30:15;95576.22;;;7.28;79.73
20027;BME280;10174;42.688;23.344;2023-10-08T04:32:41;95590.84;;;7.38;80.24
20027;BME280;10174;42.688;23.344;2023-10-08T04:35:07;95673.97;;;7.77;80.27
20027;BME280;10174;42.688;23.344;2023-10-08T04:37:40;95705.69;;;7.97;80.60
20027;BME280;10174;42.688;23.344;2023-10-08T04:40:06;95702.19;;;7.96;80.82
20027;BME280;10174;42.688;23.344;2023-10-08T04:42:41;95690.94;;;7.94;80.89
20027;BME280;10174;42.688;23.344;2023-10-08T04:45:10;95678.97;;;7.85;80.58
20027;BME280;10174;42.688;23.344;2023-10-08T04:47:40;95654.94;;;7.61;81.01
20027;BME280;10174;42.688;23.344;2023-10-08T04:50:10;95605.72;;;7.34;81.08
20027;BME280;10174;42.688;23.344;2023-10-08T04:52:43;95693.69;;;7.99;80.96
20027;BME280;10174;42.688;23.344;2023-10-08T04:55:20;95643.66;;;7.71;80.70
20027;BME280;10174;42.688;23.344;2023-10-08T04:57:54;95693.53;;;8.06;80.54
20027;BME280;10174;42.688;23.344;2023-10-08T05:00:19;95641.31;;;7.75;80.62
20027;BME280;10174;42.688;23.344;2023-10-08T05:03:04;95705.28;;;8.17;80.79
20027;BME280;10174;42.688;23.344;2023-10-08T05:05:39;95702.97;;;8.09;81.06
20027;BME280;10174;42.688;23.344;2023-10-08T05:08:20;95695.97;;;8.08;80.94
20027;BME280;10174;42.688;23.344;2023-10-08T05:10:58;95724.81;;;8.29;81.53
20027;BME280;10174;42.688;23.344;2023-10-08T05:13:40;95664.16;;;7.94;81.26
20027;BME280;10174;42.688;23.344;2023-10-08T05:16:21;95702.84;;;8.15;82.07
20027;BME280;10174;42.688;23.344;2023-10-08T05:19:02;95713.63;;;8.32;82.35
20027;BME280;10174;42.688;23.344;2023-10-08T05:21:59;95672.50;;;8.10;81.38
20027;BME280;10174;42.688;23.344;2023-10-08T05:24:46;95692.28;;;8.37;81.17
20027;BME280;10174;42.688;23.344;2023-10-08T05:27:30;95626.53;;;8.13;80.72
20027;BME280;10174;42.688;23.344;2023-10-08T05:30:18;95697.88;;;8.65;80.52
20027;BME280;10174;42.688;23.344;2023-10-08T05:32:57;95685.97;;;8.72;80.21
20027;BME280;10174;42.688;23.344;2023-10-08T05:35:39;95687.69;;;8.79;79.84
20027;BME280;10174;42.688;23.344;2023-10-08T05:38:05;95720.09;;;9.11;79.66
20027;BME280;10174;42.688;23.344;2023-10-08T05:40:56;95715.22;;;9.08;79.68
20027;BME280;10174;42.688;23.344;2023-10-08T05:43:27;95705.94;;;9.16;79.43
20027;BME280;10174;42.688;23.344;2023-10-08T05:46:14;95717.88;;;9.25;78.67
20027;BME280;10174;42.688;23.344;2023-10-08T05:48:53;95734.31;;;9.45;77.25
20027;BME280;10174;42.688;23.344;2023-10-08T05:51:35;95729.00;;;9.51;76.98
20027;BME280;10174;42.688;23.344;2023-10-08T05:54:20;95739.94;;;9.66;76.48
20027;BME280;10174;42.688;23.344;2023-10-08T05:59:37;95740.81;;;9.89;75.00
20027;BME280;10174;42.688;23.344;2023-10-08T06:02:28;95708.78;;;9.82;74.07
20027;BME280;10174;42.688;23.344;2023-10-08T06:05:07;95689.13;;;9.76;74.38
20027;BME280;10174;42.688;23.344;2023-10-08T06:10:25;95739.19;;;10.32;71.12
20027;BME280;10174;42.688;23.344;2023-10-08T06:13:01;95736.09;;;10.40;69.77
20027;BME280;10174;42.688;23.344;2023-10-08T06:15:47;95694.63;;;10.31;68.57
20027;BME280;10174;42.688;23.344;2023-10-08T06:18:26;95719.16;;;10.62;68.11
20027;BME280;10174;42.688;23.344;2023-10-08T06:20:53;95726.31;;;10.78;67.36
20027;BME280;10174;42.688;23.344;2023-10-08T06:23:24;95646.09;;;10.38;67.38
20027;BME280;10174;42.688;23.344;2023-10-08T06:25:51;95697.78;;;10.77;66.84
20027;BME280;10174;42.688;23.344;2023-10-08T06:28:24;95729.72;;;11.01;66.41
20027;BME280;10174;42.688;23.344;2023-10-08T06:30:54;95650.84;;;10.58;65.76
20027;BME280;10174;42.688;23.344;2023-10-08T06:33:21;95693.56;;;10.86;66.29
20027;BME280;10174;42.688;23.344;2023-10-08T06:35:48;95700.81;;;11.13;66.21
20027;BME280;10174;42.688;23.344;2023-10-08T06:38:33;95713.34;;;11.35;66.32
20027;BME280;10174;42.688;23.344;2023-10-08T06:41:03;95720.91;;;11.43;65.78
20027;BME280;10174;42.688;23.344;2023-10-08T06:43:44;95643.75;;;11.11;64.99
20027;BME280;10174;42.688;23.344;2023-10-08T06:46:29;95626.22;;;11.03;64.91
20027;BME280;10174;42.688;23.344;2023-10-08T06:49:02;95704.41;;;11.67;64.56
20027;BME280;10174;42.688;23.344;2023-10-08T06:51:28;95663.44;;;11.54;64.10
20027;BME280;10174;42.688;23.344;2023-10-08T06:53:56;95706.97;;;11.94;63.00
20027;BME280;10174;42.688;23.344;2023-10-08T06:56:24;95630.56;;;11.47;63.32
20027;BME280;10174;42.688;23.344;2023-10-08T06:58:50;95647.91;;;11.77;61.76
20027;BME280;10174;42.688;23.344;2023-10-08T07:01:21;95711.72;;;12.29;61.40
20027;BME280;10174;42.688;23.344;2023-10-08T07:03:53;95703.91;;;12.38;61.21
20027;BME280;10174;42.688;23.344;2023-10-08T07:06:22;95706.66;;;12.48;60.53
20027;BME280;10174;42.688;23.344;2023-10-08T07:08:58;95708.59;;;12.58;60.75
20027;BME280;10174;42.688;23.344;2023-10-08T07:11:25;95650.28;;;12.32;60.68
20027;BME280;10174;42.688;23.344;2023-10-08T07:13:52;95703.22;;;12.74;60.51
20027;BME280;10174;42.688;23.344;2023-10-08T07:16:18;95701.34;;;12.85;60.17
20027;BME280;10174;42.688;23.344;2023-10-08T07:18:44;95657.91;;;12.65;59.75
20027;BME280;10174;42.688;23.344;2023-10-08T07:21:21;95654.69;;;12.84;59.46
20027;BME280;10174;42.688;23.344;2023-10-08T07:24:13;95587.28;;;12.69;58.97
20027;BME280;10174;42.688;23.344;2023-10-08T07:26:43;95615.59;;;12.92;58.15
20027;BME280;10174;42.688;23.344;2023-10-08T07:29:13;95660.38;;;13.34;57.59
20027;BME280;10174;42.688;23.344;2023-10-08T07:31:43;95666.53;;;13.55;57.52
20027;BME280;10174;42.688;23.344;2023-10-08T07:34:14;95694.00;;;13.88;57.68
20027;BME280;10174;42.688;23.344;2023-10-08T07:36:49;95657.00;;;13.83;57.33
20027;BME280;10174;42.688;23.344;2023-10-08T07:39:17;95658.84;;;14.03;56.86
20027;BME280;10174;42.688;23.344;2023-10-08T07:41:50;95599.50;;;13.83;56.62
20027;BME280;10174;42.688;23.344;2023-10-08T07:44:16;95663.03;;;14.30;55.62
20027;BME280;10174;42.688;23.344;2023-10-08T07:46:46;95654.84;;;14.51;55.24
20027;BME280;10174;42.688;23.344;2023-10-08T07:49:12;95619.75;;;14.40;54.91
20027;BME280;10174;42.688;23.344;2023-10-08T07:51:40;95657.94;;;14.78;54.57
20027;BME280;10174;42.688;23.344;2023-10-08T07:54:06;95551.19;;;14.26;54.87
20027;BME280;10174;42.688;23.344;2023-10-08T07:56:35;95626.56;;;14.77;54.53
20027;BME280;10174;42.688;23.344;2023-10-08T07:59:02;95621.72;;;14.74;53.96
20027;BME280;10174;42.688;23.344;2023-10-08T08:01:34;95595.72;;;14.78;53.60
20027;BME280;10174;42.688;23.344;2023-10-08T08:04:00;95622.44;;;15.20;53.80
20027;BME280;10174;42.688;23.344;2023-10-08T08:06:25;95649.72;;;15.53;53.02
20027;BME280;10174;42.688;23.344;2023-10-08T08:08:51;95597.13;;;15.35;52.83
20027;BME280;10174;42.688;23.344;2023-10-08T08:11:16;95612.75;;;15.67;53.24
20027;BME280;10174;42.688;23.344;2023-10-08T08:13:43;95627.00;;;16.02;51.84
20027;BME280;10174;42.688;23.344;2023-10-08T08:16:10;95622.47;;;16.16;51.84
20027;BME280;10174;42.688;23.344;2023-10-08T08:18:53;95613.31;;;16.12;51.35
20027;BME280;10174;42.688;23.344;2023-10-08T08:21:22;95610.47;;;16.23;51.23
20027;BME280;10174;42.688;23.344;2023-10-08T08:23:49;95563.22;;;16.10;50.80
20027;BME280;10174;42.688;23.344;2023-10-08T08:26:22;95628.66;;;16.79;50.54
20027;BME280;10174;42.688;23.344;2023-10-08T08:28:58;95614.50;;;17.01;49.61
20027;BME280;10174;42.688;23.344;2023-10-08T08:31:25;95594.34;;;17.21;48.66
20027;BME280;10174;42.688;23.344;2023-10-08T08:33:52;95555.34;;;17.31;47.22
20027;BME280;10174;42.688;23.344;2023-10-08T08:36:21;95598.94;;;17.95;46.97
20027;BME280;10174;42.688;23.344;2023-10-08T08:38:47;95598.69;;;18.70;41.65
20027;BME280;10174;42.688;23.344;2023-10-08T08:41:13;95546.72;;;18.94;39.73
20027;BME280;10174;42.688;23.344;2023-10-08T08:43:44;95586.81;;;19.65;38.20
20027;BME280;10174;42.688;23.344;2023-10-08T08:46:12;95545.09;;;19.96;36.92
20027;BME280;10174;42.688;23.344;2023-10-08T08:48:42;95591.19;;;20.41;35.37
20027;BME280;10174;42.688;23.344;2023-10-08T08:51:10;95536.66;;;20.59;34.82
20027;BME280;10174;42.688;23.344;2023-10-08T08:53:36;95534.84;;;20.98;33.86
20027;BME280;10174;42.688;23.344;2023-10-08T08:56:02;95545.22;;;21.40;33.77
20027;BME280;10174;42.688;23.344;2023-10-08T08:58:33;95551.03;;;22.06;33.45
20027;BME280;10174;42.688;23.344;2023-10-08T09:01:00;95580.69;;;22.26;32.24
20027;BME280;10174;42.688;23.344;2023-10-08T09:03:26;95473.31;;;22.08;32.06
20027;BME280;10174;42.688;23.344;2023-10-08T09:05:56;95549.41;;;22.35;31.26
20027;BME280;10174;42.688;23.344;2023-10-08T09:08:21;95561.38;;;23.27;30.56
20027;BME280;10174;42.688;23.344;2023-10-08T09:10:49;95535.94;;;25.51;28.29
20027;BME280;10174;42.688;23.344;2023-10-08T09:13:20;95563.56;;;25.55;26.79
20027;BME280;10174;42.688;23.344;2023-10-08T09:15:51;95570.28;;;25.57;27.20
20027;BME280;10174;42.688;23.344;2023-10-08T09:18:17;95569.53;;;26.40;26.49
20027;BME280;10174;42.688;23.344;2023-10-08T09:20:43;95538.34;;;25.53;27.01
20027;BME280;10174;42.688;23.344;2023-10-08T09:23:16;95519.34;;;26.11;26.37
20027;BME280;10174;42.688;23.344;2023-10-08T09:25:47;95551.97;;;25.33;27.10
20027;BME280;10174;42.688;23.344;2023-10-08T09:28:17;95513.44;;;25.01;28.20
20027;BME280;10174;42.688;23.344;2023-10-08T09:30:43;95537.91;;;25.67;27.00
20027;BME280;10174;42.688;23.344;2023-10-08T09:33:14;95568.16;;;26.15;25.79
20027;BME280;10174;42.688;23.344;2023-10-08T09:35:43;95550.09;;;26.69;26.16
20027;BME280;10174;42.688;23.344;2023-10-08T09:38:09;95553.50;;;26.62;25.68
20027;BME280;10174;42.688;23.344;2023-10-08T09:40:38;95531.56;;;26.30;25.90
20027;BME280;10174;42.688;23.344;2023-10-08T09:43:06;95516.50;;;26.63;25.34
20027;BME280;10174;42.688;23.344;2023-10-08T09:45:33;95515.63;;;25.88;25.76
20027;BME280;10174;42.688;23.344;2023-10-08T09:48:01;95494.69;;;25.99;25.93
20027;BME280;10174;42.688;23.344;2023-10-08T09:50:36;95508.59;;;27.89;24.12
20027;BME280;10174;42.688;23.344;2023-10-08T09:53:13;95489.19;;;26.74;24.50
20027;BME280;10174;42.688;23.344;2023-10-08T09:55:56;95488.97;;;26.43;25.07
20027;BME280;10174;42.688;23.344;2023-10-08T09:58:22;95523.25;;;25.78;26.56
20027;BME280;10174;42.688;23.344;2023-10-08T10:00:50;95499.72;;;24.89;27.13
20027;BME280;10174;42.688;23.344;2023-10-08T10:03:18;95495.19;;;23.87;28.27
20027;BME280;10174;42.688;23.344;2023-10-08T10:05:48;95528.97;;;23.79;28.96
20027;BME280;10174;42.688;23.344;2023-10-08T10:08:14;95466.59;;;23.14;29.64
20027;BME280;10174;42.688;23.344;2023-10-08T10:10:39;95512.47;;;24.41;28.55
20027;BME280;10174;42.688;23.344;2023-10-08T10:13:10;95509.28;;;24.26;29.37
20027;BME280;10174;42.688;23.344;2023-10-08T10:15:37;95462.72;;;23.52;29.37
20027;BME280;10174;42.688;23.344;2023-10-08T10:23:49;95496.06;;;27.69;24.44
20027;BME280;10174;42.688;23.344;2023-10-08T10:31:49;95469.44;;;26.68;25.60
20027;BME280;10174;42.688;23.344;2023-10-08T10:34:26;95497.13;;;27.18;25.68
20027;BME280;10174;42.688;23.344;2023-10-08T10:36:57;95464.63;;;26.65;26.57
20027;BME280;10174;42.688;23.344;2023-10-08T10:39:28;95444.91;;;27.29;26.01
20027;BME280;10174;42.688;23.344;2023-10-08T10:41:59;95486.97;;;27.92;25.61
20027;BME280;10174;42.688;23.344;2023-10-08T10:44:33;95450.53;;;27.55;25.51
20027;BME280;10174;42.688;23.344;2023-10-08T10:47:02;95442.44;;;27.43;25.81
20027;BME280;10174;42.688;23.344;2023-10-08T10:49:47;95456.94;;;27.17;26.20
20027;BME280;10174;42.688;23.344;2023-10-08T10:52:38;95457.22;;;26.49;27.05
20027;BME280;10174;42.688;23.344;2023-10-08T10:55:11;95434.25;;;25.71;27.64
20027;BME280;10174;42.688;23.344;2023-10-08T10:57:58;95484.03;;;25.82;28.12
20027;BME280;10174;42.688;23.344;2023-10-08T11:00:37;95459.91;;;26.85;26.99
20027;BME280;10174;42.688;23.344;2023-10-08T11:03:04;95430.84;;;26.48;27.01
20027;BME280;10174;42.688;23.344;2023-10-08T11:05:41;95441.50;;;25.79;27.98
20027;BME280;10174;42.688;23.344;2023-10-08T11:08:12;95431.91;;;25.37;28.61
20027;BME280;10174;42.688;23.344;2023-10-08T11:10:40;95431.00;;;25.33;28.36
20027;BME280;10174;42.688;23.344;2023-10-08T11:13:12;95401.03;;;24.96;28.59
20027;BME280;10174;42.688;23.344;2023-10-08T11:15:42;95396.81;;;26.18;27.38
20027;BME280;10174;42.688;23.344;2023-10-08T11:18:09;95444.81;;;27.95;25.86
20027;BME280;10174;42.688;23.344;2023-10-08T11:20:35;95376.38;;;28.72;24.17
20027;BME280;10174;42.688;23.344;2023-10-08T11:23:10;95428.25;;;29.79;23.57
20027;BME280;10174;42.688;23.344;2023-10-08T11:26:05;95432.75;;;28.37;25.31
20027;BME280;10174;42.688;23.344;2023-10-08T11:28:36;95406.88;;;26.92;26.30
20027;BME280;10174;42.688;23.344;2023-10-08T11:31:08;95426.03;;;28.04;25.77
20027;BME280;10174;42.688;23.344;2023-10-08T11:33:44;95410.91;;;26.16;27.39
20027;BME280;10174;42.688;23.344;2023-10-08T11:36:22;95430.47;;;26.11;28.19
20027;BME280;10174;42.688;23.344;2023-10-08T11:39:11;95424.28;;;25.47;28.74
20027;BME280;10174;42.688;23.344;2023-10-08T11:44:22;95373.25;;;24.25;30.42
20027;BME280;10174;42.688;23.344;2023-10-08T11:46:49;95405.28;;;24.21;30.95
20027;BME280;10174;42.688;23.344;2023-10-08T11:49:18;95356.94;;;23.63;31.10
20027;BME280;10174;42.688;23.344;2023-10-08T11:51:46;95428.44;;;23.83;31.70
20027;BME280;10174;42.688;23.344;2023-10-08T11:54:12;95440.44;;;23.66;32.12
20027;BME280;10174;42.688;23.344;2023-10-08T11:56:38;95429.38;;;23.62;31.88
20027;BME280;10174;42.688;23.344;2023-10-08T11:59:05;95418.41;;;23.62;32.20
20027;BME280;10174;42.688;23.344;2023-10-08T12:01:38;95415.69;;;23.50;32.34
20027;BME280;10174;42.688;23.344;2023-10-08T12:04:09;95421.16;;;23.38;32.64
20027;BME280;10174;42.688;23.344;2023-10-08T12:06:43;95420.69;;;23.85;32.33
20027;BME280;10174;42.688;23.344;2023-10-08T12:09:13;95390.56;;;25.18;30.24
20027;BME280;10174;42.688;23.344;2023-10-08T12:11:39;95386.41;;;25.40;30.00
20027;BME280;10174;42.688;23.344;2023-10-08T12:14:05;95323.78;;;24.53;30.59
20027;BME280;10174;42.688;23.344;2023-10-08T12:16:30;95400.53;;;25.38;30.29
20027;BME280;10174;42.688;23.344;2023-10-08T12:19:01;95360.44;;;25.37;29.76
20027;BME280;10174;42.688;23.344;2023-10-08T12:21:30;95384.09;;;25.77;29.58
20027;BME280;10174;42.688;23.344;2023-10-08T12:23:58;95414.06;;;25.63;29.62
20027;BME280;10174;42.688;23.344;2023-10-08T12:26:24;95308.06;;;24.82;30.58
20027;BME280;10174;42.688;23.344;2023-10-08T12:28:51;95435.72;;;25.17;30.55
20027;BME280;10174;42.688;23.344;2023-10-08T12:31:19;95341.50;;;24.12;31.65
20027;BME280;10174;42.688;23.344;2023-10-08T12:33:49;95425.47;;;24.00;32.39
20027;BME280;10174;42.688;23.344;2023-10-08T12:36:21;95409.38;;;23.62;32.92
20027;BME280;10174;42.688;23.344;2023-10-08T12:38:51;95420.47;;;23.53;33.20
20027;BME280;10174;42.688;23.344;2023-10-08T12:41:24;95394.44;;;23.59;33.01
20027;BME280;10174;42.688;23.344;2023-10-08T12:43:52;95395.78;;;23.65;32.92
20027;BME280;10174;42.688;23.344;2023-10-08T12:46:18;95410.38;;;23.82;32.89
20027;BME280;10174;42.688;23.344;2023-10-08T12:48:49;95410.38;;;23.82;32.93
20027;BME280;10174;42.688;23.344;2023-10-08T12:51:18;95378.44;;;23.49;33.00
20027;BME280;10174;42.688;23.344;2023-10-08T12:53:43;95407.88;;;23.77;33.25
20027;BME280;10174;42.688;23.344;2023-10-08T12:56:30;95373.38;;;23.63;33.09
20027;BME280;10174;42.688;23.344;2023-10-08T12:59:04;95372.03;;;23.57;33.63
20027;BME280;10174;42.688;23.344;2023-10-08T13:01:32;95357.31;;;23.37;33.29
20027;BME280;10174;42.688;23.344;2023-10-08T13:03:58;95397.38;;;23.66;33.09
20027;BME280;10174;42.688;23.344;2023-10-08T13:06:27;95373.59;;;23.71;33.35
20027;BME280;10174;42.688;23.344;2023-10-08T13:08:59;95405.38;;;23.72;32.75
20027;BME280;10174;42.688;23.344;2023-10-08T13:11:26;95401.28;;;23.65;32.94
20027;BME280;10174;42.688;23.344;2023-10-08T13:13:56;95328.78;;;23.38;33.03
20027;BME280;10174;42.688;23.344;2023-10-08T13:16:22;95388.00;;;23.68;32.54
20027;BME280;10174;42.688;23.344;2023-10-08T13:18:48;95330.03;;;23.28;32.60
20027;BME280;10174;42.688;23.344;2023-10-08T13:21:14;95372.03;;;23.57;32.77
20027;BME280;10174;42.688;23.344;2023-10-08T13:23:40;95336.41;;;23.45;32.40
20027;BME280;10174;42.688;23.344;2023-10-08T13:26:06;95361.06;;;23.57;32.72
20027;BME280;10174;42.688;23.344;2023-10-08T13:28:35;95370.88;;;23.71;32.73
20027;BME280;10174;42.688;23.344;2023-10-08T13:31:02;95334.47;;;23.45;32.47
20027;BME280;10174;42.688;23.344;2023-10-08T13:33:39;95347.91;;;23.63;32.45
20027;BME280;10174;42.688;23.344;2023-10-08T13:36:06;95374.53;;;23.75;32.58
20027;BME280;10174;42.688;23.344;2023-10-08T13:38:35;95320.66;;;23.42;32.98
20027;BME280;10174;42.688;23.344;2023-10-08T13:41:03;95338.25;;;23.53;32.86